createdAt,value
2023-04-07T00:00:04.022Z,-0.99
2023-04-07T00:02:38.403Z,-1.24
2023-04-07T00:05:05.881Z,-0.69
2023-04-07T00:07:33.848Z,-0.45
2023-04-07T00:10:04.135Z,-0.55
2023-04-07T00:12:30.725Z,-0.69
2023-04-07T00:14:57.282Z,-0.65
2023-04-07T00:17:23.918Z,-1.13
2023-04-07T00:19:50.817Z,-1.10
2023-04-07T00:22:18.151Z,-0.86
2023-04-07T00:24:44.767Z,-1.06
2023-04-07T00:27:11.634Z,-0.74
2023-04-07T00:29:38.222Z,-0.72
2023-04-07T00:32:04.875Z,-0.95
2023-04-07T00:34:31.890Z,-1.11
2023-04-07T00:36:58.541Z,-1.07
2023-04-07T00:39:27.489Z,-0.87
2023-04-07T00:41:54.271Z,-0.93
2023-04-07T00:44:21.466Z,-1.16
2023-04-07T00:46:48.829Z,-1.34
2023-04-07T00:49:17.947Z,-1.43
2023-04-07T00:51:46.682Z,-1.54
2023-04-07T00:54:13.493Z,-1.49
2023-04-07T00:56:42.452Z,-1.17
2023-04-07T00:59:10.211Z,-1.22
2023-04-07T01:01:47.927Z,-1.25
2023-04-07T01:04:28.845Z,-1.71
2023-04-07T01:07:01.658Z,-1.96
2023-04-07T01:09:57.805Z,-1.94
2023-04-07T01:12:55.097Z,-1.55
2023-04-07T01:15:27.519Z,-1.51
2023-04-07T01:18:07.591Z,-1.32
2023-04-07T01:20:36.190Z,-1.35
2023-04-07T01:23:07.069Z,-1.46
2023-04-07T01:26:04.740Z,-1.38
2023-04-07T01:28:49.567Z,-1.40
2023-04-07T01:31:17.288Z,-1.39
2023-04-07T01:33:49.416Z,-1.40
2023-04-07T01:36:17.205Z,-1.40
2023-04-07T01:38:46.073Z,-1.42
2023-04-07T01:41:15.976Z,-1.55
2023-04-07T01:43:44.534Z,-1.40
2023-04-07T01:46:11.832Z,-1.73
2023-04-07T01:48:40.347Z,-1.56
2023-04-07T01:51:07.874Z,-1.48
2023-04-07T01:53:37.882Z,-1.43
2023-04-07T01:56:05.737Z,-1.55
2023-04-07T01:58:34.298Z,-1.72
2023-04-07T02:01:02.421Z,-1.68
2023-04-07T02:03:37.946Z,-1.65
2023-04-07T02:06:10.451Z,-1.49
2023-04-07T02:08:46.610Z,-1.71
2023-04-07T02:11:14.588Z,-1.62
2023-04-07T02:13:43.501Z,-2.05
2023-04-07T02:16:12.729Z,-2.10
2023-04-07T02:18:40.624Z,-1.93
2023-04-07T02:21:08.909Z,-1.71
2023-04-07T02:23:36.342Z,-1.75
2023-04-07T02:26:03.053Z,-1.86
2023-04-07T02:28:29.679Z,-2.39
2023-04-07T02:30:56.307Z,-2.00
2023-04-07T02:33:23.151Z,-2.35
2023-04-07T02:35:50.727Z,-2.18
2023-04-07T02:38:17.339Z,-2.45
2023-04-07T02:40:43.907Z,-2.27
2023-04-07T02:43:10.784Z,-2.13
2023-04-07T02:45:37.408Z,-2.30
2023-04-07T02:48:04.110Z,-2.32
2023-04-07T02:50:30.742Z,-2.03
2023-04-07T02:52:57.355Z,-2.22
2023-04-07T02:55:23.982Z,-1.89
2023-04-07T02:57:50.723Z,-1.90
2023-04-07T03:00:35.931Z,-2.08
2023-04-07T03:03:10.473Z,-2.13
2023-04-07T03:05:40.374Z,-2.29
2023-04-07T03:08:09.190Z,-2.24
2023-04-07T03:10:36.522Z,-2.45
2023-04-07T03:13:03.487Z,-3.02
2023-04-07T03:15:31.308Z,-2.41
2023-04-07T03:17:58.097Z,-2.75
2023-04-07T03:20:24.931Z,-2.61
2023-04-07T03:22:51.572Z,-2.69
2023-04-07T03:25:26.709Z,-2.48
2023-04-07T03:27:54.001Z,-2.61
2023-04-07T03:30:21.654Z,-2.56
2023-04-07T03:32:48.351Z,-2.72
2023-04-07T03:35:15.329Z,-2.93
2023-04-07T03:37:44.143Z,-3.06
2023-04-07T03:40:15.347Z,-2.78
2023-04-07T03:42:42.041Z,-2.71
2023-04-07T03:45:11.353Z,-2.51
2023-04-07T03:47:42.656Z,-2.51
2023-04-07T03:50:10.402Z,-2.70
2023-04-07T03:52:47.374Z,-3.09
2023-04-07T03:55:23.047Z,-3.04
2023-04-07T03:57:53.638Z,-2.84
2023-04-07T04:00:20.776Z,-2.99
2023-04-07T04:03:02.511Z,-2.57
2023-04-07T04:05:29.356Z,-2.88
2023-04-07T04:07:56.591Z,-2.78
2023-04-07T04:10:23.461Z,-2.76
2023-04-07T04:12:52.768Z,-2.86
2023-04-07T04:15:19.547Z,-2.82
2023-04-07T04:17:46.884Z,-2.83
2023-04-07T04:20:14.564Z,-3.01
2023-04-07T04:22:43.458Z,-2.96
2023-04-07T04:25:11.226Z,-2.88
2023-04-07T04:27:39.508Z,-3.07
2023-04-07T04:30:14.608Z,-3.18
2023-04-07T04:32:51.346Z,-3.94
2023-04-07T04:35:23.132Z,-3.38
2023-04-07T04:38:02.965Z,-3.31
2023-04-07T04:40:30.369Z,-3.42
2023-04-07T04:42:57.185Z,-3.40
2023-04-07T04:45:25.053Z,-3.26
2023-04-07T04:47:51.793Z,-3.51
2023-04-07T04:50:18.587Z,-3.97
2023-04-07T04:52:46.659Z,-3.64
2023-04-07T04:55:19.649Z,-3.64
2023-04-07T04:57:46.866Z,-3.60
2023-04-07T05:00:19.213Z,-3.62
2023-04-07T05:02:48.994Z,-3.38
2023-04-07T05:05:16.135Z,-3.65
2023-04-07T05:07:43.608Z,-3.77
2023-04-07T05:10:13.123Z,-3.91
2023-04-07T05:12:46.195Z,-3.86
2023-04-07T05:15:12.852Z,-4.05
2023-04-07T05:17:40.131Z,-4.12
2023-04-07T05:20:10.899Z,-3.66
2023-04-07T05:22:41.417Z,-3.65
2023-04-07T05:25:11.878Z,-3.33
2023-04-07T05:27:41.066Z,-3.27
2023-04-07T05:30:13.022Z,-3.08
2023-04-07T05:32:40.050Z,-2.95
2023-04-07T05:35:15.472Z,-2.85
2023-04-07T05:37:49.808Z,-2.82
2023-04-07T05:40:16.600Z,-2.57
2023-04-07T05:42:44.259Z,-2.15
2023-04-07T05:45:11.548Z,-2.34
2023-04-07T05:47:41.478Z,-1.82
2023-04-07T05:50:12.230Z,-2.01
2023-04-07T05:52:41.199Z,-1.70
2023-04-07T05:55:19.042Z,-1.66
2023-04-07T05:57:46.138Z,-1.56
2023-04-07T06:00:14.247Z,-1.46
2023-04-07T06:02:41.205Z,-1.49
2023-04-07T06:05:13.747Z,-1.27
2023-04-07T06:07:40.696Z,-1.27
2023-04-07T06:10:08.712Z,-1.37
2023-04-07T06:12:35.488Z,-1.02
2023-04-07T06:15:02.227Z,-0.70
2023-04-07T06:17:29.039Z,-0.96
2023-04-07T06:19:55.681Z,-0.69
2023-04-07T06:22:22.325Z,-0.53
2023-04-07T06:24:48.918Z,-0.56
2023-04-07T06:27:16.409Z,-0.73
2023-04-07T06:29:43.101Z,-0.76
2023-04-07T06:32:09.779Z,-0.46
2023-04-07T06:34:36.448Z,-0.05
2023-04-07T06:37:03.816Z,0.45
2023-04-07T06:39:30.685Z,0.76
2023-04-07T06:41:57.798Z,1.10
2023-04-07T06:44:24.506Z,0.97
2023-04-07T06:46:53.266Z,1.40
2023-04-07T06:49:20.105Z,1.94
2023-04-07T06:51:46.789Z,1.90
2023-04-07T06:54:14.746Z,1.67
2023-04-07T06:56:42.904Z,1.88
2023-04-07T06:59:09.970Z,2.07
2023-04-07T07:01:37.830Z,1.68
2023-04-07T07:04:06.427Z,1.94
2023-04-07T07:06:33.249Z,2.16
2023-04-07T07:09:02.681Z,2.22
2023-04-07T07:11:29.382Z,2.74
2023-04-07T07:13:56.056Z,3.04
2023-04-07T07:16:24.133Z,3.41
2023-04-07T07:18:51.951Z,3.71
2023-04-07T07:21:19.332Z,4.01
2023-04-07T07:23:46.214Z,3.80
2023-04-07T07:26:13.011Z,4.26
2023-04-07T07:28:39.627Z,3.75
2023-04-07T07:31:13.533Z,4.33
2023-04-07T07:33:41.401Z,4.53
2023-04-07T07:36:08.639Z,4.48
2023-04-07T07:38:37.071Z,5.04
2023-04-07T07:41:04.594Z,5.13
2023-04-07T07:43:31.270Z,5.40
2023-04-07T07:45:58.000Z,5.42
2023-04-07T07:48:24.696Z,5.29
2023-04-07T07:50:52.378Z,5.40
2023-04-07T07:53:19.158Z,5.31
2023-04-07T07:55:47.155Z,5.22
2023-04-07T07:58:13.950Z,5.05
2023-04-07T08:00:40.864Z,5.45
2023-04-07T08:03:07.858Z,5.50
2023-04-07T08:05:34.729Z,5.68
2023-04-07T08:08:01.643Z,5.79
2023-04-07T08:10:28.339Z,5.59
2023-04-07T08:12:54.976Z,5.94
2023-04-07T08:15:21.909Z,6.43
2023-04-07T08:17:48.538Z,6.64
2023-04-07T08:20:16.352Z,6.47
2023-04-07T08:22:43.088Z,6.43
2023-04-07T08:25:10.676Z,6.15
2023-04-07T08:27:37.361Z,6.38
2023-04-07T08:30:08.829Z,6.28
2023-04-07T08:32:36.718Z,6.06
2023-04-07T08:35:03.586Z,6.85
2023-04-07T08:37:31.481Z,6.58
2023-04-07T08:39:58.127Z,6.38
2023-04-07T08:42:30.314Z,6.55
2023-04-07T08:45:01.309Z,6.36
2023-04-07T08:47:30.855Z,6.38
2023-04-07T08:50:01.514Z,6.58
2023-04-07T08:52:54.161Z,7.03
2023-04-07T08:55:21.151Z,7.79
2023-04-07T08:57:48.358Z,7.34
2023-04-07T09:00:16.028Z,7.61
2023-04-07T09:02:48.955Z,8.12
2023-04-07T09:05:15.869Z,7.89
2023-04-07T09:07:45.376Z,8.02
2023-04-07T09:10:12.174Z,7.54
2023-04-07T09:12:39.072Z,7.23
2023-04-07T09:15:07.542Z,7.57
2023-04-07T09:17:34.181Z,7.55
2023-04-07T09:20:01.933Z,7.45
2023-04-07T09:22:39.285Z,8.15
2023-04-07T09:25:13.475Z,8.34
2023-04-07T09:27:40.135Z,8.23
2023-04-07T09:30:15.806Z,8.52
2023-04-07T09:32:42.698Z,8.30
2023-04-07T09:35:10.032Z,8.16
2023-04-07T09:37:37.458Z,8.23
2023-04-07T09:40:04.805Z,8.24
2023-04-07T09:42:36.034Z,8.50
2023-04-07T09:45:02.905Z,8.50
2023-04-07T09:47:31.679Z,8.15
2023-04-07T09:49:59.488Z,8.29
2023-04-07T09:52:49.601Z,8.38
2023-04-07T09:55:17.339Z,8.59
2023-04-07T09:57:45.376Z,8.20
2023-04-07T10:00:12.876Z,8.67
2023-04-07T10:02:43.722Z,8.74
2023-04-07T10:05:11.058Z,8.67
2023-04-07T10:07:37.814Z,8.81
2023-04-07T10:10:05.072Z,8.86
2023-04-07T10:12:34.427Z,8.72
2023-04-07T10:15:02.237Z,8.65
2023-04-07T10:17:29.388Z,8.94
2023-04-07T10:19:58.747Z,8.93
2023-04-07T10:22:27.864Z,8.96
2023-04-07T10:25:00.692Z,9.42
2023-04-07T10:27:37.132Z,9.43
2023-04-07T10:30:11.852Z,9.46
2023-04-07T10:32:49.500Z,9.84
2023-04-07T10:35:17.258Z,9.69
2023-04-07T10:38:07.210Z,10.19
2023-04-07T10:40:35.471Z,10.02
2023-04-07T10:43:02.620Z,9.94
2023-04-07T10:45:48.530Z,9.60
2023-04-07T10:48:17.428Z,9.47
2023-04-07T10:51:07.962Z,9.69
2023-04-07T10:53:35.088Z,9.54
2023-04-07T10:56:02.197Z,9.69
2023-04-07T10:58:30.843Z,9.64
2023-04-07T11:00:57.608Z,9.94
2023-04-07T11:03:25.664Z,9.85
2023-04-07T11:05:52.578Z,10.30
2023-04-07T11:08:39.251Z,10.52
2023-04-07T11:11:09.305Z,10.98
2023-04-07T11:13:46.546Z,10.62
2023-04-07T11:16:14.302Z,10.95
2023-04-07T11:18:41.850Z,11.45
2023-04-07T11:21:09.358Z,11.03
2023-04-07T11:23:44.001Z,11.04
2023-04-07T11:26:13.022Z,10.59
2023-04-07T11:28:51.701Z,10.82
2023-04-07T11:31:26.247Z,11.28
2023-04-07T11:33:58.864Z,11.34
2023-04-07T11:36:38.691Z,11.40
2023-04-07T11:39:05.970Z,10.82
2023-04-07T11:41:33.880Z,10.75
2023-04-07T11:44:05.438Z,11.42
2023-04-07T11:46:32.206Z,11.75
2023-04-07T11:49:15.579Z,11.24
2023-04-07T11:51:44.425Z,11.86
2023-04-07T11:54:11.488Z,12.72
2023-04-07T11:56:45.802Z,12.96
2023-04-07T11:59:21.142Z,13.47
2023-04-07T12:01:49.470Z,12.87
2023-04-07T12:04:17.281Z,12.10
2023-04-07T12:06:47.054Z,12.13
2023-04-07T12:09:27.332Z,12.26
2023-04-07T12:11:54.169Z,12.76
2023-04-07T12:14:20.961Z,12.30
2023-04-07T12:16:47.645Z,12.58
2023-04-07T12:19:14.391Z,12.38
2023-04-07T12:21:41.074Z,12.25
2023-04-07T12:24:07.782Z,12.75
2023-04-07T12:26:34.483Z,11.84
2023-04-07T12:29:05.239Z,13.23
2023-04-07T12:31:32.943Z,14.18
2023-04-07T12:33:59.765Z,14.22
2023-04-07T12:36:29.691Z,13.65
2023-04-07T12:38:57.168Z,13.66
2023-04-07T12:41:25.069Z,13.69
2023-04-07T12:43:52.351Z,13.76
2023-04-07T12:46:20.043Z,14.02
2023-04-07T12:48:48.004Z,14.15
2023-04-07T12:51:14.924Z,14.34
2023-04-07T12:53:41.836Z,15.32
2023-04-07T12:56:08.820Z,15.77
2023-04-07T12:58:35.607Z,15.52
2023-04-07T13:01:02.242Z,15.90
2023-04-07T13:03:29.154Z,15.73
2023-04-07T13:05:56.174Z,16.09
2023-04-07T13:08:22.773Z,15.69
2023-04-07T13:10:49.491Z,14.79
2023-04-07T13:13:16.439Z,14.62
2023-04-07T13:15:43.068Z,14.54
2023-04-07T13:18:09.754Z,13.99
2023-04-07T13:20:36.528Z,14.63
2023-04-07T13:23:08.102Z,14.98
2023-04-07T13:25:40.192Z,15.11
2023-04-07T13:28:06.943Z,14.96
2023-04-07T13:30:35.211Z,14.76
2023-04-07T13:33:03.562Z,14.65
2023-04-07T13:35:35.494Z,14.11
2023-04-07T13:38:03.892Z,15.92
2023-04-07T13:40:31.123Z,15.45
2023-04-07T13:42:58.429Z,15.10
2023-04-07T13:45:25.081Z,15.01
2023-04-07T13:47:51.989Z,15.38
2023-04-07T13:50:22.066Z,14.63
2023-04-07T13:52:48.845Z,14.48
2023-04-07T13:55:16.969Z,14.14
2023-04-07T13:57:43.722Z,14.73
2023-04-07T14:00:11.302Z,15.91
2023-04-07T14:02:38.710Z,15.71
2023-04-07T14:05:05.943Z,15.06
2023-04-07T14:07:35.087Z,14.73
2023-04-07T14:10:04.561Z,15.14
2023-04-07T14:12:31.589Z,15.75
2023-04-07T14:15:18.630Z,15.59
2023-04-07T14:17:45.508Z,14.14
2023-04-07T14:20:12.355Z,13.46
2023-04-07T14:22:39.040Z,13.97
2023-04-07T14:25:08.939Z,14.07
2023-04-07T14:27:36.190Z,13.59
2023-04-07T14:30:03.456Z,13.22
2023-04-07T14:32:30.283Z,13.24
2023-04-07T14:34:59.233Z,13.14
2023-04-07T14:37:26.681Z,13.48
2023-04-07T14:40:01.881Z,13.87
2023-04-07T14:42:30.847Z,13.95
2023-04-07T14:44:59.112Z,14.83
2023-04-07T14:47:26.645Z,15.87
2023-04-07T14:49:53.810Z,15.06
2023-04-07T14:52:22.217Z,15.78
2023-04-07T14:54:49.100Z,15.03
2023-04-07T14:57:16.770Z,15.22
2023-04-07T14:59:44.113Z,14.64
2023-04-07T15:02:11.433Z,13.40
2023-04-07T15:04:38.650Z,14.22
2023-04-07T15:07:06.154Z,14.56
2023-04-07T15:09:33.138Z,14.11
2023-04-07T15:12:00.853Z,13.44
2023-04-07T15:14:28.123Z,13.03
2023-04-07T15:16:54.996Z,12.29
2023-04-07T15:19:21.829Z,12.34
2023-04-07T15:21:48.618Z,12.54
2023-04-07T15:24:16.434Z,12.31
2023-04-07T15:26:43.805Z,12.51
2023-04-07T15:29:10.823Z,12.43
2023-04-07T15:31:37.594Z,12.51
2023-04-07T15:34:04.656Z,12.43
2023-04-07T15:36:31.725Z,11.94
2023-04-07T15:39:04.534Z,12.03
2023-04-07T15:41:31.648Z,12.72
2023-04-07T15:44:04.452Z,12.63
2023-04-07T15:46:34.273Z,12.54
2023-04-07T15:49:01.078Z,11.74
2023-04-07T15:51:29.674Z,11.88
2023-04-07T15:53:56.623Z,12.06
2023-04-07T15:56:24.970Z,12.37
2023-04-07T15:58:52.072Z,12.18
2023-04-07T16:01:26.083Z,12.04
2023-04-07T16:03:53.096Z,12.88
2023-04-07T16:06:20.146Z,12.34
2023-04-07T16:08:46.813Z,12.28
2023-04-07T16:11:13.548Z,12.03
2023-04-07T16:13:40.353Z,11.81
2023-04-07T16:16:07.836Z,11.78
2023-04-07T16:18:34.669Z,11.81
2023-04-07T16:21:03.705Z,11.62
2023-04-07T16:23:31.246Z,11.71
2023-04-07T16:25:57.931Z,11.63
2023-04-07T16:28:24.612Z,11.36
2023-04-07T16:30:51.258Z,11.39
2023-04-07T16:33:17.911Z,10.99
2023-04-07T16:35:44.763Z,11.18
2023-04-07T16:38:12.134Z,11.30
2023-04-07T16:40:38.754Z,11.17
2023-04-07T16:43:05.484Z,11.24
2023-04-07T16:45:32.181Z,11.32
2023-04-07T16:47:58.990Z,11.15
2023-04-07T16:50:25.716Z,11.05
2023-04-07T16:52:52.815Z,11.03
2023-04-07T16:55:19.524Z,10.92
2023-04-07T16:57:46.381Z,11.07
2023-04-07T17:00:13.441Z,10.74
2023-04-07T17:02:40.288Z,10.74
2023-04-07T17:05:07.406Z,10.56
2023-04-07T17:07:34.082Z,10.64
2023-04-07T17:10:01.281Z,10.74
2023-04-07T17:12:28.107Z,10.49
2023-04-07T17:14:54.745Z,10.60
2023-04-07T17:17:21.433Z,10.56
2023-04-07T17:19:48.224Z,10.63
2023-04-07T17:22:14.909Z,10.59
2023-04-07T17:24:41.569Z,10.43
2023-04-07T17:27:08.498Z,10.38
2023-04-07T17:29:35.210Z,10.26
2023-04-07T17:32:02.397Z,10.42
2023-04-07T17:34:29.046Z,10.32
2023-04-07T17:36:56.070Z,10.30
2023-04-07T17:39:22.868Z,10.03
2023-04-07T17:41:49.534Z,9.91
2023-04-07T17:44:16.183Z,9.84
2023-04-07T17:46:43.086Z,9.58
2023-04-07T17:49:10.054Z,9.84
2023-04-07T17:51:37.279Z,9.82
2023-04-07T17:54:04.008Z,9.86
2023-04-07T17:56:30.812Z,9.15
2023-04-07T17:58:57.479Z,9.13
2023-04-07T18:01:24.190Z,9.12
2023-04-07T18:03:52.956Z,8.77
2023-04-07T18:06:20.102Z,8.83
2023-04-07T18:08:47.971Z,8.54
2023-04-07T18:11:15.605Z,8.79
2023-04-07T18:13:42.328Z,8.32
2023-04-07T18:16:10.447Z,8.44
2023-04-07T18:18:40.493Z,8.64
2023-04-07T18:21:07.252Z,8.68
2023-04-07T18:23:34.678Z,8.83
2023-04-07T18:26:05.293Z,8.61
2023-04-07T18:28:32.363Z,8.47
2023-04-07T18:31:08.553Z,8.34
2023-04-07T18:33:36.305Z,8.49
2023-04-07T18:36:05.027Z,8.34
2023-04-07T18:38:31.768Z,8.20
2023-04-07T18:40:59.282Z,8.33
2023-04-07T18:43:26.539Z,8.16
2023-04-07T18:45:53.413Z,8.01
2023-04-07T18:48:21.556Z,8.13
2023-04-07T18:50:52.656Z,7.89
2023-04-07T18:53:23.109Z,7.92
2023-04-07T18:55:50.404Z,8.26
2023-04-07T18:58:17.155Z,7.69
2023-04-07T19:00:44.573Z,7.95
2023-04-07T19:03:11.833Z,7.71
2023-04-07T19:05:42.363Z,7.91
2023-04-07T19:08:09.576Z,8.02
2023-04-07T19:10:36.341Z,7.99
2023-04-07T19:13:03.882Z,7.76
2023-04-07T19:15:38.437Z,7.55
2023-04-07T19:18:05.231Z,7.75
2023-04-07T19:20:33.760Z,7.86
2023-04-07T19:23:01.856Z,7.57
2023-04-07T19:25:28.751Z,7.60
2023-04-07T19:27:55.696Z,7.50
2023-04-07T19:30:22.483Z,7.74
2023-04-07T19:32:49.319Z,7.51
2023-04-07T19:35:39.044Z,7.50
2023-04-07T19:38:06.212Z,7.42
2023-04-07T19:40:33.492Z,7.36
2023-04-07T19:43:00.468Z,7.48
2023-04-07T19:45:27.244Z,7.32
2023-04-07T19:47:54.561Z,7.31
2023-04-07T19:50:21.412Z,7.36
2023-04-07T19:52:48.147Z,7.32
2023-04-07T19:55:15.357Z,7.28
2023-04-07T19:57:42.046Z,7.22
2023-04-07T20:00:31.042Z,7.23
2023-04-07T20:02:58.890Z,7.23
2023-04-07T20:05:26.238Z,7.21
2023-04-07T20:07:52.863Z,6.87
2023-04-07T20:10:19.516Z,6.85
2023-04-07T20:12:46.167Z,6.65
2023-04-07T20:15:12.944Z,6.65
2023-04-07T20:17:39.639Z,6.18
2023-04-07T20:20:07.103Z,6.32
2023-04-07T20:22:35.088Z,6.08
2023-04-07T20:25:04.889Z,6.03
2023-04-07T20:27:32.260Z,5.90
2023-04-07T20:29:59.040Z,5.77
2023-04-07T20:32:26.491Z,5.58
2023-04-07T20:34:53.706Z,5.32
2023-04-07T20:37:22.047Z,5.62
2023-04-07T20:39:49.012Z,5.35
2023-04-07T20:42:16.093Z,5.41
2023-04-07T20:44:42.842Z,5.27
2023-04-07T20:47:10.818Z,5.26
2023-04-07T20:49:39.637Z,5.25
2023-04-07T20:52:07.187Z,5.15
2023-04-07T20:54:35.377Z,4.85
2023-04-07T20:57:02.486Z,4.58
2023-04-07T20:59:30.224Z,4.87
2023-04-07T21:01:56.980Z,4.96
2023-04-07T21:04:24.476Z,4.94
2023-04-07T21:06:51.480Z,4.78
2023-04-07T21:09:18.225Z,5.05
2023-04-07T21:11:44.907Z,4.94
2023-04-07T21:14:11.744Z,5.04
2023-04-07T21:16:38.617Z,5.02
2023-04-07T21:19:06.341Z,5.10
2023-04-07T21:21:33.248Z,4.97
2023-04-07T21:24:00.005Z,4.87
2023-04-07T21:26:27.330Z,4.66
2023-04-07T21:31:22.489Z,4.52
2023-04-07T21:33:49.353Z,4.78
2023-04-07T21:36:16.297Z,4.51
2023-04-07T21:38:42.888Z,4.39
2023-04-07T21:41:09.745Z,4.34
2023-04-07T21:43:36.436Z,4.34
2023-04-07T21:46:03.186Z,4.26
2023-04-07T21:48:30.307Z,4.08
2023-04-07T21:50:57.213Z,3.75
2023-04-07T21:53:23.849Z,3.99
2023-04-07T21:55:50.558Z,3.88
2023-04-07T21:58:17.177Z,4.11
2023-04-07T22:00:43.848Z,3.94
2023-04-07T22:03:11.078Z,3.72
2023-04-07T22:05:38.396Z,3.80
2023-04-07T22:08:05.396Z,3.84
2023-04-07T22:10:32.001Z,3.66
2023-04-07T22:12:58.609Z,3.44
2023-04-07T22:15:25.440Z,3.34
2023-04-07T22:17:52.120Z,3.68
2023-04-07T22:20:19.308Z,3.40
2023-04-07T22:22:46.466Z,3.13
2023-04-07T22:25:13.132Z,3.24
2023-04-07T22:27:39.766Z,3.22
2023-04-07T22:30:09.971Z,3.53
2023-04-07T22:32:36.956Z,3.35
2023-04-07T22:35:03.843Z,3.53
2023-04-07T22:37:30.481Z,3.14
2023-04-07T22:39:57.113Z,3.60
2023-04-07T22:42:23.876Z,3.41
2023-04-07T22:44:50.624Z,3.66
2023-04-07T22:47:17.325Z,3.67
2023-04-07T22:49:44.088Z,3.61
2023-04-07T22:52:10.954Z,3.65
2023-04-07T22:54:37.689Z,3.43
2023-04-07T22:57:04.533Z,3.65
2023-04-07T22:59:31.776Z,3.80
2023-04-07T23:01:58.570Z,3.83
2023-04-07T23:04:25.630Z,3.99
2023-04-07T23:06:52.254Z,4.03
2023-04-07T23:09:19.390Z,3.80
2023-04-07T23:11:47.348Z,3.80
2023-04-07T23:14:14.603Z,3.65
2023-04-07T23:16:41.315Z,3.95
2023-04-07T23:19:11.635Z,3.83
2023-04-07T23:21:39.633Z,3.85
2023-04-07T23:24:06.300Z,3.69
2023-04-07T23:26:32.954Z,3.83
2023-04-07T23:28:59.646Z,3.83
2023-04-07T23:31:26.682Z,3.71
2023-04-07T23:33:53.336Z,3.87
2023-04-07T23:36:20.092Z,3.93
2023-04-07T23:38:46.825Z,3.70
2023-04-07T23:41:13.475Z,3.93
2023-04-07T23:43:40.251Z,3.76
2023-04-07T23:46:06.991Z,3.93
2023-04-07T23:48:33.662Z,3.88
2023-04-07T23:51:00.320Z,3.73
2023-04-07T23:53:27.076Z,3.89
2023-04-07T23:55:54.105Z,3.76
2023-04-07T23:58:20.959Z,3.91
